createdAt,value
2022-08-16T00:01:33.960Z,5.53
2022-08-16T00:04:01.882Z,5.78
2022-08-16T00:06:32.309Z,4.90
2022-08-16T00:08:59.828Z,5.82
2022-08-16T00:11:26.844Z,4.85
2022-08-16T00:13:55.502Z,5.80
2022-08-16T00:17:01.067Z,5.20
2022-08-16T00:19:22.402Z,6.25
2022-08-16T00:21:51.945Z,6.28
2022-08-16T00:24:32.277Z,5.97
2022-08-16T00:27:04.520Z,4.95
2022-08-16T00:29:32.744Z,5.22
2022-08-16T00:32:06.528Z,6.80
2022-08-16T00:34:43.392Z,6.57
2022-08-16T00:37:16.877Z,6.88
2022-08-16T00:39:47.731Z,6.95
2022-08-16T00:42:30.244Z,7.10
2022-08-16T00:45:21.332Z,6.25
2022-08-16T00:47:53.665Z,6.38
2022-08-16T00:50:35.877Z,6.10
2022-08-16T00:53:06.617Z,7.03
2022-08-16T00:55:38.245Z,7.40
2022-08-16T00:58:13.251Z,8.60
2022-08-16T01:00:45.509Z,8.10
2022-08-16T01:03:31.709Z,7.18
2022-08-16T01:06:40.297Z,8.00
2022-08-16T01:08:54.487Z,7.20
2022-08-16T01:11:25.529Z,7.05
2022-08-16T01:14:03.258Z,7.20
2022-08-16T01:16:30.641Z,8.00
2022-08-16T01:19:01.015Z,6.38
2022-08-16T01:22:47.125Z,6.82
2022-08-16T01:25:16.001Z,7.50
2022-08-16T01:30:26.296Z,5.20
2022-08-16T01:33:01.202Z,5.60
2022-08-16T01:35:43.332Z,4.90
2022-08-16T01:38:28.304Z,5.20
2022-08-16T01:41:05.453Z,4.97
2022-08-16T01:43:36.723Z,5.35
2022-08-16T01:46:37.442Z,6.75
2022-08-16T01:49:18.953Z,6.53
2022-08-16T01:51:53.802Z,6.30
2022-08-16T01:54:31.255Z,8.77
2022-08-16T01:56:59.570Z,6.78
2022-08-16T01:59:29.742Z,7.38
2022-08-16T02:01:59.864Z,6.93
2022-08-16T02:04:49.110Z,7.55
2022-08-16T02:07:19.272Z,7.40
2022-08-16T02:09:57.219Z,7.70
2022-08-16T02:12:42.123Z,7.70
2022-08-16T02:15:17.237Z,8.73
2022-08-16T02:17:52.730Z,9.25
2022-08-16T02:20:19.979Z,9.32
2022-08-16T02:22:55.164Z,9.80
2022-08-16T02:25:23.135Z,8.88
2022-08-16T02:27:51.473Z,6.82
2022-08-16T02:30:36.821Z,6.15
2022-08-16T02:33:12.439Z,5.63
2022-08-16T02:35:49.706Z,6.38
2022-08-16T02:38:21.796Z,6.55
2022-08-16T02:40:49.004Z,7.25
2022-08-16T02:43:16.282Z,6.07
2022-08-16T02:45:43.817Z,6.90
2022-08-16T02:48:29.502Z,6.82
2022-08-16T02:51:10.792Z,11.25
2022-08-16T02:53:45.080Z,8.65
2022-08-16T02:56:15.946Z,12.05
2022-08-16T02:58:50.970Z,8.00
2022-08-16T03:01:36.526Z,7.28
2022-08-16T03:04:46.436Z,8.75
2022-08-16T03:06:56.505Z,7.10
2022-08-16T03:09:25.240Z,8.32
2022-08-16T03:11:57.063Z,7.60
2022-08-16T03:14:27.854Z,10.35
2022-08-16T03:17:00.382Z,11.90
2022-08-16T03:19:48.120Z,9.02
2022-08-16T03:22:29.119Z,7.88
2022-08-16T03:25:01.038Z,7.80
2022-08-16T03:27:32.133Z,7.82
2022-08-16T03:30:18.738Z,8.82
2022-08-16T03:32:51.734Z,9.38
2022-08-16T03:35:32.613Z,10.48
2022-08-16T03:38:04.283Z,9.50
2022-08-16T03:40:51.856Z,9.25
2022-08-16T03:43:24.235Z,11.57
2022-08-16T03:46:11.220Z,11.82
2022-08-16T03:48:40.600Z,9.40
2022-08-16T03:51:12.119Z,7.95
2022-08-16T03:53:41.539Z,7.65
2022-08-16T03:56:19.813Z,7.75
2022-08-16T03:58:50.936Z,7.38
2022-08-16T04:01:22.076Z,8.30
2022-08-16T04:03:52.763Z,6.93
2022-08-16T04:06:20.944Z,7.55
2022-08-16T04:08:48.575Z,9.43
2022-08-16T04:11:16.254Z,9.00
2022-08-16T04:14:00.709Z,7.82
2022-08-16T04:16:32.459Z,8.38
2022-08-16T04:19:01.247Z,7.63
2022-08-16T04:21:32.563Z,11.07
2022-08-16T04:24:00.369Z,8.40
2022-08-16T04:26:32.277Z,9.45
2022-08-16T04:29:16.994Z,9.82
2022-08-16T04:31:56.165Z,7.05
2022-08-16T04:34:30.112Z,9.27
2022-08-16T04:37:01.291Z,7.38
2022-08-16T04:39:36.645Z,7.70
2022-08-16T04:42:11.303Z,6.32
2022-08-16T04:44:53.330Z,7.38
2022-08-16T04:47:24.767Z,9.27
2022-08-16T04:49:52.758Z,7.28
2022-08-16T04:52:32.878Z,8.88
2022-08-16T04:55:37.526Z,10.60
2022-08-16T04:58:44.108Z,8.57
2022-08-16T05:00:53.588Z,9.85
2022-08-16T05:03:21.391Z,8.75
2022-08-16T05:05:59.546Z,8.23
2022-08-16T05:08:32.729Z,6.80
2022-08-16T05:11:05.895Z,9.60
2022-08-16T05:13:42.431Z,9.40
2022-08-16T05:16:31.427Z,9.32
2022-08-16T05:19:02.213Z,7.05
2022-08-16T05:21:37.981Z,8.40
2022-08-16T05:24:09.137Z,8.52
2022-08-16T05:26:40.929Z,8.50
2022-08-16T05:29:14.725Z,7.75
2022-08-16T05:31:48.082Z,6.53
2022-08-16T05:34:22.345Z,6.63
2022-08-16T05:36:51.142Z,6.80
2022-08-16T05:39:19.067Z,7.82
2022-08-16T05:41:49.091Z,10.98
2022-08-16T05:44:23.711Z,7.95
2022-08-16T05:47:00.829Z,8.43
2022-08-16T05:49:39.753Z,7.35
2022-08-16T05:52:11.363Z,7.55
2022-08-16T05:54:45.947Z,8.48
2022-08-16T05:57:18.062Z,7.97
2022-08-16T05:59:50.368Z,8.75
2022-08-16T06:02:39.681Z,8.20
2022-08-16T06:05:10.904Z,9.88
2022-08-16T06:07:38.560Z,8.73
2022-08-16T06:10:07.545Z,8.75
2022-08-16T06:12:37.496Z,7.78
2022-08-16T06:15:15.015Z,6.65
2022-08-16T06:17:45.259Z,9.57
2022-08-16T06:20:25.704Z,8.77
2022-08-16T06:23:17.156Z,11.13
2022-08-16T06:25:52.874Z,9.90
2022-08-16T06:28:35.011Z,10.30
2022-08-16T06:31:06.547Z,9.40
2022-08-16T06:33:40.273Z,9.88
2022-08-16T06:36:11.768Z,10.93
2022-08-16T06:41:27.224Z,9.13
2022-08-16T06:43:55.668Z,9.32
2022-08-16T06:46:34.371Z,9.23
2022-08-16T06:49:05.484Z,9.73
2022-08-16T06:51:46.164Z,9.98
2022-08-16T06:54:16.076Z,9.40
2022-08-16T06:56:43.416Z,8.32
2022-08-16T06:59:12.315Z,9.38
2022-08-16T07:01:43.385Z,9.55
2022-08-16T07:04:13.379Z,10.05
2022-08-16T07:06:59.662Z,9.75
2022-08-16T07:09:29.898Z,10.57
2022-08-16T07:12:03.696Z,8.82
2022-08-16T07:14:35.040Z,8.18
2022-08-16T07:17:03.456Z,11.07
2022-08-16T07:20:02.872Z,10.18
2022-08-16T07:22:39.112Z,7.90
2022-08-16T07:25:13.636Z,8.55
2022-08-16T07:27:42.164Z,7.20
2022-08-16T07:30:39.091Z,9.40
2022-08-16T07:33:02.230Z,8.20
2022-08-16T07:35:29.745Z,7.72
2022-08-16T07:37:56.758Z,10.32
2022-08-16T07:40:49.033Z,10.27
2022-08-16T07:43:11.221Z,10.10
2022-08-16T07:45:42.901Z,9.93
2022-08-16T07:48:11.619Z,9.75
2022-08-16T07:50:55.673Z,8.45
2022-08-16T07:53:25.293Z,8.00
2022-08-16T07:55:56.967Z,7.72
2022-08-16T07:58:33.754Z,8.30
2022-08-16T08:01:07.107Z,8.27
2022-08-16T08:03:42.562Z,7.32
2022-08-16T08:06:12.380Z,8.30
2022-08-16T08:08:49.476Z,7.07
2022-08-16T08:11:19.839Z,7.20
2022-08-16T08:13:50.694Z,6.18
2022-08-16T08:16:19.902Z,6.15
2022-08-16T08:18:55.867Z,8.30
2022-08-16T08:22:01.380Z,6.93
2022-08-16T08:24:15.348Z,6.82
2022-08-16T08:26:42.808Z,8.30
2022-08-16T08:29:09.891Z,6.60
2022-08-16T08:31:42.294Z,7.07
2022-08-16T08:34:09.277Z,6.85
2022-08-16T08:36:40.172Z,6.00
2022-08-16T08:39:13.084Z,7.22
2022-08-16T08:41:42.933Z,6.35
2022-08-16T08:44:28.528Z,5.30
2022-08-16T08:47:11.060Z,5.90
2022-08-16T08:49:46.501Z,5.13
2022-08-16T08:52:34.441Z,6.32
2022-08-16T08:55:10.732Z,6.03
2022-08-16T08:57:47.868Z,6.25
2022-08-16T09:00:21.495Z,4.55
2022-08-16T09:02:54.320Z,6.32
2022-08-16T09:05:35.718Z,4.50
2022-08-16T09:08:05.744Z,4.03
2022-08-16T09:10:33.868Z,5.20
2022-08-16T09:13:06.415Z,4.55
2022-08-16T09:15:35.116Z,4.13
2022-08-16T09:18:26.261Z,4.63
2022-08-16T09:20:59.318Z,4.35
2022-08-16T09:23:30.495Z,4.80
2022-08-16T09:25:57.977Z,3.90
2022-08-16T09:29:13.808Z,4.60
2022-08-16T09:31:14.230Z,3.47
2022-08-16T09:33:42.908Z,3.20
2022-08-16T09:36:12.180Z,3.72
2022-08-16T09:38:59.634Z,2.70
2022-08-16T09:41:28.157Z,2.83
2022-08-16T09:44:00.017Z,2.95
2022-08-16T09:46:44.463Z,2.50
2022-08-16T09:49:14.037Z,3.20
2022-08-16T09:51:42.860Z,2.63
2022-08-16T09:54:16.748Z,2.60
2022-08-16T09:56:51.410Z,1.60
2022-08-16T09:59:23.960Z,2.05
2022-08-16T10:01:53.473Z,2.40
2022-08-16T10:04:29.276Z,2.47
2022-08-16T10:07:02.995Z,2.00
2022-08-16T10:09:53.993Z,2.33
2022-08-16T10:12:45.904Z,2.08
2022-08-16T10:15:21.042Z,3.63
2022-08-16T10:17:59.599Z,3.88
2022-08-16T10:20:27.756Z,3.90
2022-08-16T10:23:05.448Z,3.42
2022-08-16T10:27:19.833Z,2.50
2022-08-16T10:28:30.529Z,2.28
2022-08-16T10:31:03.238Z,2.78
2022-08-16T10:33:33.504Z,2.40
2022-08-16T10:36:05.658Z,2.38
2022-08-16T10:38:38.466Z,2.45
2022-08-16T10:41:10.278Z,2.15
2022-08-16T10:43:39.234Z,2.22
2022-08-16T10:46:39.973Z,2.00
2022-08-16T10:48:56.659Z,2.15
2022-08-16T10:51:33.464Z,2.08
2022-08-16T10:54:02.902Z,2.42
2022-08-16T10:56:52.518Z,1.70
2022-08-16T10:59:45.819Z,1.52
2022-08-16T11:02:56.864Z,1.10
2022-08-16T11:05:11.888Z,1.35
2022-08-16T11:07:43.703Z,1.15
2022-08-16T11:11:05.045Z,1.55
2022-08-16T11:15:57.618Z,1.30
2022-08-16T11:18:48.166Z,1.33
2022-08-16T11:21:28.763Z,1.45
2022-08-16T11:23:58.983Z,1.17
2022-08-16T11:26:28.135Z,1.80
2022-08-16T11:29:13.487Z,0.90
2022-08-16T11:31:42.485Z,0.70
2022-08-16T11:34:19.756Z,0.85
2022-08-16T11:36:53.815Z,0.80
2022-08-16T11:39:29.927Z,1.10
2022-08-16T11:41:58.905Z,1.10
2022-08-16T11:44:52.382Z,1.23
2022-08-16T11:47:13.497Z,1.20
2022-08-16T11:49:40.562Z,0.80
2022-08-16T11:52:08.019Z,0.80
2022-08-16T11:54:36.743Z,0.70
2022-08-16T11:57:08.945Z,0.80
2022-08-16T11:59:40.018Z,1.00
2022-08-16T12:02:31.209Z,1.00
2022-08-16T12:04:55.826Z,1.10
2022-08-16T12:07:23.625Z,1.63
2022-08-16T12:09:55.268Z,1.20
2022-08-16T12:12:24.006Z,1.30
2022-08-16T12:15:00.389Z,1.60
2022-08-16T12:17:32.354Z,1.80
2022-08-16T12:20:01.814Z,1.17
2022-08-16T12:22:34.000Z,1.55
2022-08-16T12:25:11.436Z,1.63
2022-08-16T12:27:39.256Z,1.83
2022-08-16T12:30:08.840Z,1.83
2022-08-16T12:32:56.316Z,1.60
2022-08-16T12:35:26.936Z,1.60
2022-08-16T12:37:57.077Z,1.75
2022-08-16T12:40:32.497Z,1.63
2022-08-16T12:43:02.896Z,1.50
2022-08-16T12:45:38.147Z,1.40
2022-08-16T12:48:34.968Z,1.60
2022-08-16T12:51:13.776Z,1.42
2022-08-16T12:53:51.847Z,1.45
2022-08-16T12:56:21.790Z,1.60
2022-08-16T12:58:55.900Z,1.35
2022-08-16T13:01:29.532Z,1.10
2022-08-16T13:04:20.570Z,1.10
2022-08-16T13:06:48.698Z,1.30
2022-08-16T13:09:26.382Z,1.10
2022-08-16T13:12:18.827Z,1.45
2022-08-16T13:14:48.045Z,1.38
2022-08-16T13:20:11.322Z,1.08
2022-08-16T13:22:47.953Z,1.40
2022-08-16T13:25:21.305Z,0.90
2022-08-16T13:28:01.507Z,1.00
2022-08-16T13:30:36.048Z,1.10
2022-08-16T13:33:10.839Z,1.20
2022-08-16T13:35:42.987Z,0.90
2022-08-16T13:38:24.924Z,0.98
2022-08-16T13:40:56.091Z,0.93
2022-08-16T13:43:27.598Z,1.00
2022-08-16T13:45:58.001Z,1.02
2022-08-16T13:48:43.270Z,1.00
2022-08-16T13:51:16.654Z,1.00
2022-08-16T13:53:54.921Z,0.90
2022-08-16T13:56:34.246Z,0.80
2022-08-16T13:59:20.855Z,1.10
2022-08-16T14:01:56.803Z,0.70
2022-08-16T14:04:34.113Z,0.80
2022-08-16T14:07:07.077Z,0.98
2022-08-16T14:09:36.489Z,0.70
2022-08-16T14:12:09.751Z,0.80
2022-08-16T14:14:37.513Z,0.68
2022-08-16T14:17:04.537Z,0.60
2022-08-16T14:19:31.440Z,0.80
2022-08-16T14:22:14.320Z,0.70
2022-08-16T14:24:45.153Z,0.70
2022-08-16T14:27:22.734Z,0.70
2022-08-16T14:29:52.189Z,0.70
2022-08-16T14:32:32.966Z,0.70
2022-08-16T14:35:07.166Z,0.70
2022-08-16T14:37:35.631Z,0.70
2022-08-16T14:40:10.861Z,0.60
2022-08-16T14:42:40.503Z,0.60
2022-08-16T14:45:16.330Z,0.65
2022-08-16T14:47:44.289Z,0.50
2022-08-16T14:50:19.921Z,0.90
2022-08-16T14:52:57.321Z,0.60
2022-08-16T14:55:27.400Z,0.60
2022-08-16T14:57:55.085Z,0.60
2022-08-16T15:00:32.727Z,0.60
2022-08-16T15:03:03.511Z,0.70
2022-08-16T15:08:04.207Z,0.63
2022-08-16T15:10:32.597Z,0.50
2022-08-16T15:13:01.072Z,0.50
2022-08-16T15:15:30.805Z,0.73
2022-08-16T15:17:59.404Z,0.50
2022-08-16T15:23:02.918Z,0.50
2022-08-16T15:25:44.289Z,0.60
2022-08-16T15:28:31.135Z,0.60
2022-08-16T15:31:05.993Z,0.60
2022-08-16T15:33:39.372Z,0.60
2022-08-16T15:36:17.905Z,0.60
2022-08-16T15:39:03.108Z,0.90
2022-08-16T15:41:43.035Z,0.55
2022-08-16T15:44:21.135Z,0.50
2022-08-16T15:46:56.531Z,0.47
2022-08-16T15:49:37.613Z,0.60
2022-08-16T15:52:29.952Z,0.40
2022-08-16T15:55:00.378Z,0.40
2022-08-16T15:57:41.145Z,0.35
2022-08-16T16:00:14.351Z,0.52
2022-08-16T16:02:42.254Z,0.50
2022-08-16T16:05:10.118Z,0.40
2022-08-16T16:07:40.988Z,0.50
2022-08-16T16:10:29.875Z,0.60
2022-08-16T16:13:00.707Z,0.50
2022-08-16T16:15:33.544Z,0.50
2022-08-16T16:18:09.019Z,0.50
2022-08-16T16:20:39.729Z,0.47
2022-08-16T16:23:10.445Z,0.50
2022-08-16T16:25:43.815Z,0.50
2022-08-16T16:29:05.958Z,0.40
2022-08-16T16:31:10.455Z,0.47
2022-08-16T16:33:43.331Z,0.40
2022-08-16T16:36:15.651Z,0.50
2022-08-16T16:38:46.001Z,0.45
2022-08-16T16:41:14.600Z,0.52
2022-08-16T16:43:44.618Z,0.60
2022-08-16T16:46:40.600Z,0.60
2022-08-16T16:49:08.913Z,0.80
2022-08-16T16:51:40.850Z,0.75
2022-08-16T16:54:12.712Z,0.80
2022-08-16T16:56:49.841Z,0.70
2022-08-16T16:59:20.130Z,0.68
2022-08-16T17:01:57.662Z,0.80
2022-08-16T17:04:31.556Z,0.80
2022-08-16T17:07:01.646Z,0.90
2022-08-16T17:09:29.691Z,0.80
2022-08-16T17:11:58.500Z,0.80
2022-08-16T17:14:33.503Z,0.75
2022-08-16T17:17:06.422Z,1.35
2022-08-16T17:19:34.364Z,0.80
2022-08-16T17:22:14.744Z,0.70
2022-08-16T17:24:50.776Z,0.70
2022-08-16T17:27:32.383Z,0.90
2022-08-16T17:30:15.606Z,0.70
2022-08-16T17:32:50.521Z,0.60
2022-08-16T17:35:33.752Z,0.90
2022-08-16T17:38:07.753Z,0.93
2022-08-16T17:40:58.522Z,0.60
2022-08-16T17:43:43.963Z,0.80
2022-08-16T17:46:41.748Z,0.90
2022-08-16T17:49:00.287Z,0.73
2022-08-16T17:51:27.490Z,0.70
2022-08-16T17:53:55.181Z,0.80
2022-08-16T17:56:22.227Z,0.90
2022-08-16T17:58:49.106Z,0.70
2022-08-16T18:01:16.510Z,0.80
2022-08-16T18:04:09.081Z,0.93
2022-08-16T18:06:33.778Z,0.90
2022-08-16T18:09:03.672Z,0.80
2022-08-16T18:11:38.275Z,0.90
2022-08-16T18:14:09.772Z,1.20
2022-08-16T18:16:37.285Z,0.80
2022-08-16T18:19:04.205Z,1.00
2022-08-16T18:22:09.350Z,0.98
2022-08-16T18:24:37.507Z,0.90
2022-08-16T18:27:24.686Z,1.10
2022-08-16T18:29:52.389Z,0.95
2022-08-16T18:32:23.093Z,1.30
2022-08-16T18:34:54.446Z,0.95
2022-08-16T18:37:25.635Z,1.20
2022-08-16T18:39:52.837Z,1.00
2022-08-16T18:42:20.869Z,1.15
2022-08-16T18:44:47.890Z,1.27
2022-08-16T18:47:15.173Z,1.20
2022-08-16T18:49:42.089Z,1.25
2022-08-16T18:52:15.312Z,1.20
2022-08-16T18:55:01.969Z,1.27
2022-08-16T18:57:39.788Z,1.45
2022-08-16T19:00:11.493Z,1.40
2022-08-16T19:02:57.618Z,1.75
2022-08-16T19:05:29.186Z,1.60
2022-08-16T19:07:56.107Z,1.55
2022-08-16T19:10:23.328Z,1.35
2022-08-16T19:12:50.495Z,1.38
2022-08-16T19:15:24.251Z,1.40
2022-08-16T19:17:51.695Z,1.30
2022-08-16T19:20:22.664Z,1.55
2022-08-16T19:23:09.936Z,1.90
2022-08-16T19:25:47.326Z,1.35
2022-08-16T19:28:50.809Z,1.42
2022-08-16T19:31:26.075Z,1.20
2022-08-16T19:33:56.369Z,1.60
2022-08-16T19:36:31.412Z,1.90
2022-08-16T19:39:05.121Z,1.70
2022-08-16T19:41:35.338Z,1.98
2022-08-16T19:44:03.274Z,2.03
2022-08-16T19:46:30.309Z,1.33
2022-08-16T19:48:57.469Z,1.60
2022-08-16T19:51:24.876Z,1.90
2022-08-16T19:53:51.813Z,1.77
2022-08-16T19:56:18.744Z,2.33
2022-08-16T19:59:08.811Z,2.08
2022-08-16T20:01:37.365Z,2.17
2022-08-16T20:04:08.377Z,1.98
2022-08-16T20:06:38.533Z,2.25
2022-08-16T20:09:06.746Z,1.60
2022-08-16T20:11:35.358Z,1.90
2022-08-16T20:14:02.911Z,1.88
2022-08-16T20:16:30.001Z,1.80
2022-08-16T20:18:56.944Z,2.78
2022-08-16T20:21:24.410Z,2.45
2022-08-16T20:23:51.628Z,3.08
2022-08-16T20:26:18.968Z,2.53
2022-08-16T20:28:53.847Z,2.35
2022-08-16T20:31:25.914Z,2.22
2022-08-16T20:33:54.325Z,4.03
2022-08-16T20:36:21.673Z,4.82
2022-08-16T20:38:50.055Z,3.58
2022-08-16T20:41:17.227Z,3.47
2022-08-16T20:43:45.542Z,2.40
2022-08-16T20:46:14.020Z,2.70
2022-08-16T20:48:41.054Z,2.60
2022-08-16T20:51:10.723Z,2.83
2022-08-16T20:53:39.761Z,3.80
2022-08-16T20:56:07.619Z,3.47
2022-08-16T20:58:35.634Z,3.63
2022-08-16T21:01:04.176Z,3.40
2022-08-16T21:03:32.164Z,4.55
2022-08-16T21:06:02.012Z,4.10
2022-08-16T21:08:51.890Z,4.20
2022-08-16T21:11:17.625Z,4.22
2022-08-16T21:13:44.606Z,3.42
2022-08-16T21:16:11.779Z,3.40
2022-08-16T21:18:38.742Z,3.50
2022-08-16T21:21:06.376Z,3.50
2022-08-16T21:23:33.717Z,3.30
2022-08-16T21:26:01.041Z,3.30
2022-08-16T21:28:40.922Z,3.78
2022-08-16T21:31:15.181Z,3.50
2022-08-16T21:33:43.190Z,3.67
2022-08-16T21:36:11.594Z,3.40
2022-08-16T21:38:40.713Z,3.33
2022-08-16T21:41:10.377Z,3.60
2022-08-16T21:43:37.370Z,4.00
2022-08-16T21:46:06.608Z,3.95
2022-08-16T21:48:36.269Z,3.20
2022-08-16T21:51:15.691Z,4.07
2022-08-16T21:53:44.043Z,4.32
2022-08-16T21:56:12.628Z,4.82
2022-08-16T21:58:46.194Z,4.10
2022-08-16T22:01:13.695Z,3.40
2022-08-16T22:03:40.630Z,4.03
2022-08-16T22:06:12.282Z,3.28
2022-08-16T22:08:50.170Z,4.13
2022-08-16T22:11:24.305Z,3.80
2022-08-16T22:13:58.070Z,4.28
2022-08-16T22:16:38.763Z,4.13
2022-08-16T22:19:06.211Z,4.50
2022-08-16T22:21:35.094Z,3.90
2022-08-16T22:24:02.227Z,4.13
2022-08-16T22:26:33.461Z,4.03
2022-08-16T22:29:06.363Z,4.30
2022-08-16T22:31:34.501Z,4.10
2022-08-16T22:34:02.326Z,4.30
2022-08-16T22:36:32.815Z,4.95
2022-08-16T22:39:04.927Z,5.15
2022-08-16T22:41:33.764Z,4.55
2022-08-16T22:44:02.470Z,4.07
2022-08-16T22:46:30.498Z,4.13
2022-08-16T22:48:57.946Z,3.60
2022-08-16T22:51:26.786Z,4.03
2022-08-16T22:53:55.333Z,4.20
2022-08-16T22:56:24.240Z,3.80
2022-08-16T22:58:51.555Z,4.18
2022-08-16T23:01:21.601Z,3.40
2022-08-16T23:03:48.629Z,4.15
2022-08-16T23:06:15.723Z,3.50
2022-08-16T23:08:43.015Z,3.80
2022-08-16T23:11:21.010Z,4.47
2022-08-16T23:13:54.905Z,4.20
2022-08-16T23:16:33.197Z,3.55
2022-08-16T23:19:13.118Z,4.05
2022-08-16T23:21:44.263Z,3.97
2022-08-16T23:24:12.822Z,4.25
2022-08-16T23:26:47.619Z,3.67
2022-08-16T23:29:24.892Z,4.03
2022-08-16T23:31:58.732Z,3.75
2022-08-16T23:34:27.886Z,4.20
2022-08-16T23:36:55.433Z,4.93
2022-08-16T23:39:22.492Z,4.22
2022-08-16T23:41:49.724Z,4.35
2022-08-16T23:44:56.665Z,4.53
2022-08-16T23:47:05.934Z,3.85
2022-08-16T23:50:00.006Z,4.13
2022-08-16T23:52:42.368Z,4.32
2022-08-16T23:55:08.079Z,4.78
2022-08-16T23:57:35.089Z,4.35
